createdAt,value
2022-10-08T00:01:09.616Z,96520.16
2022-10-08T00:03:38.831Z,96517.63
2022-10-08T00:06:08.924Z,96514.00
2022-10-08T00:08:38.543Z,96515.69
2022-10-08T00:11:08.189Z,96524.06
2022-10-08T00:13:41.617Z,96513.22
2022-10-08T00:16:10.074Z,96517.25
2022-10-08T00:18:37.660Z,96528.16
2022-10-08T00:21:07.073Z,96524.06
2022-10-08T00:23:35.207Z,96512.22
2022-10-08T00:26:07.092Z,96518.84
2022-10-08T00:28:35.663Z,96517.91
2022-10-08T00:31:08.225Z,96507.88
2022-10-08T00:33:37.051Z,96505.88
2022-10-08T00:36:05.847Z,96507.78
2022-10-08T00:38:33.620Z,96508.44
2022-10-08T00:41:01.593Z,96506.94
2022-10-08T00:43:43.845Z,96511.53
2022-10-08T00:46:25.968Z,96503.84
2022-10-08T00:49:01.728Z,96493.66
2022-10-08T00:51:30.076Z,96489.56
2022-10-08T00:53:57.647Z,96491.41
2022-10-08T00:56:26.178Z,96482.91
2022-10-08T00:58:54.214Z,96477.94
2022-10-08T01:01:23.153Z,96486.44
2022-10-08T01:03:50.722Z,96481.31
2022-10-08T01:06:27.468Z,96469.53
2022-10-08T01:09:01.022Z,96473.47
2022-10-08T01:11:42.767Z,96464.03
2022-10-08T01:14:22.890Z,96462.03
2022-10-08T01:16:58.220Z,96455.50
2022-10-08T01:19:57.622Z,96465.09
2022-10-08T01:22:38.810Z,96451.63
2022-10-08T01:25:32.977Z,96458.69
2022-10-08T01:28:06.497Z,96452.06
2022-10-08T01:30:38.223Z,96451.78
2022-10-08T01:33:12.280Z,96445.84
2022-10-08T01:35:44.688Z,96445.13
2022-10-08T01:38:16.944Z,96445.00
2022-10-08T01:40:47.729Z,96452.22
2022-10-08T01:43:21.696Z,96449.94
2022-10-08T01:45:57.324Z,96445.72
2022-10-08T01:48:29.649Z,96447.88
2022-10-08T01:51:03.353Z,96444.97
2022-10-08T01:53:35.607Z,96442.97
2022-10-08T01:56:06.221Z,96448.34
2022-10-08T01:58:40.051Z,96443.59
2022-10-08T02:01:12.882Z,96444.63
2022-10-08T02:04:01.031Z,96447.47
2022-10-08T02:06:31.293Z,96442.56
2022-10-08T02:08:58.800Z,96432.41
2022-10-08T02:11:26.384Z,96439.28
2022-10-08T02:13:55.321Z,96433.34
2022-10-08T02:16:29.616Z,96433.34
2022-10-08T02:19:08.057Z,96441.13
2022-10-08T02:21:39.187Z,96433.81
2022-10-08T02:24:13.294Z,96442.44
2022-10-08T02:26:45.441Z,96427.28
2022-10-08T02:29:20.410Z,96435.56
2022-10-08T02:31:50.791Z,96430.88
2022-10-08T02:34:23.450Z,96435.56
2022-10-08T02:36:57.694Z,96446.03
2022-10-08T02:39:28.335Z,96442.72
2022-10-08T02:42:00.439Z,96444.16
2022-10-08T02:44:34.005Z,96442.81
2022-10-08T02:47:07.001Z,96452.03
2022-10-08T02:49:38.683Z,96444.69
2022-10-08T02:52:09.047Z,96451.53
2022-10-08T02:54:39.744Z,96455.50
2022-10-08T02:57:15.732Z,96443.63
2022-10-08T02:59:45.599Z,96447.63
2022-10-08T03:02:21.040Z,96445.09
2022-10-08T03:04:52.397Z,96440.84
2022-10-08T03:07:22.915Z,96434.06
2022-10-08T03:09:53.035Z,96441.00
2022-10-08T03:12:20.956Z,96436.84
2022-10-08T03:14:52.209Z,96448.88
2022-10-08T03:17:23.652Z,96444.00
2022-10-08T03:19:51.769Z,96449.59
2022-10-08T03:22:19.408Z,96447.50
2022-10-08T03:24:46.913Z,96443.38
2022-10-08T03:27:14.594Z,96446.47
2022-10-08T03:29:42.130Z,96454.69
2022-10-08T03:32:10.997Z,96446.19
2022-10-08T03:34:38.521Z,96442.16
2022-10-08T03:37:06.068Z,96442.16
2022-10-08T03:39:33.585Z,96443.03
2022-10-08T03:42:01.087Z,96451.44
2022-10-08T03:44:28.616Z,96453.63
2022-10-08T03:46:56.127Z,96446.13
2022-10-08T03:49:25.330Z,96451.75
2022-10-08T03:51:52.855Z,96452.78
2022-10-08T03:54:20.392Z,96450.16
2022-10-08T03:56:48.108Z,96447.59
2022-10-08T03:59:15.786Z,96458.25
2022-10-08T04:01:43.353Z,96461.13
2022-10-08T04:04:10.996Z,96459.28
2022-10-08T04:06:39.864Z,96457.63
2022-10-08T04:09:07.378Z,96465.78
2022-10-08T04:11:34.913Z,96462.59
2022-10-08T04:14:02.495Z,96480.31
2022-10-08T04:16:30.008Z,96466.16
2022-10-08T04:18:57.552Z,96457.66
2022-10-08T04:21:25.089Z,96471.41
2022-10-08T04:23:53.920Z,96464.53
2022-10-08T04:26:21.410Z,96458.06
2022-10-08T04:28:49.047Z,96468.28
2022-10-08T04:31:18.869Z,96471.22
2022-10-08T04:33:47.650Z,96466.75
2022-10-08T04:36:16.740Z,96463.91
2022-10-08T04:38:44.847Z,96466.97
2022-10-08T04:41:15.080Z,96466.56
2022-10-08T04:43:44.019Z,96462.81
2022-10-08T04:46:13.226Z,96462.91
2022-10-08T04:48:41.603Z,96461.09
2022-10-08T04:51:10.822Z,96461.66
2022-10-08T04:53:39.324Z,96465.22
2022-10-08T04:56:14.252Z,96476.31
2022-10-08T04:58:42.434Z,96474.94
2022-10-08T05:01:12.831Z,96479.25
2022-10-08T05:03:41.809Z,96483.97
2022-10-08T05:06:10.149Z,96481.59
2022-10-08T05:08:38.901Z,96477.19
2022-10-08T05:11:06.523Z,96481.03
2022-10-08T05:13:36.075Z,96479.56
2022-10-08T05:16:05.744Z,96482.22
2022-10-08T05:18:33.691Z,96467.78
2022-10-08T05:21:04.152Z,96473.09
2022-10-08T05:23:33.063Z,96478.72
2022-10-08T05:26:02.234Z,96480.34
2022-10-08T05:28:30.879Z,96486.25
2022-10-08T05:31:02.977Z,96481.78
2022-10-08T05:33:30.527Z,96473.81
2022-10-08T05:35:58.047Z,96483.84
2022-10-08T05:38:25.577Z,96480.94
2022-10-08T05:40:53.075Z,96489.00
2022-10-08T05:43:20.581Z,96495.13
2022-10-08T05:45:52.063Z,96503.25
2022-10-08T05:48:20.911Z,96502.44
2022-10-08T05:50:48.423Z,96507.66
2022-10-08T05:53:15.933Z,96497.19
2022-10-08T05:55:43.447Z,96497.66
2022-10-08T05:58:10.930Z,96508.69
2022-10-08T06:00:38.503Z,96503.56
2022-10-08T06:03:06.118Z,96507.41
2022-10-08T06:05:35.066Z,96515.06
2022-10-08T06:08:02.572Z,96517.31
2022-10-08T06:10:31.934Z,96518.81
2022-10-08T06:12:59.436Z,96521.94
2022-10-08T06:15:26.948Z,96523.59
2022-10-08T06:17:54.449Z,96521.72
2022-10-08T06:20:21.950Z,96518.97
2022-10-08T06:22:50.955Z,96525.00
2022-10-08T06:25:18.536Z,96526.19
2022-10-08T06:27:46.031Z,96532.88
2022-10-08T06:30:14.087Z,96535.34
2022-10-08T06:32:41.609Z,96547.09
2022-10-08T06:35:09.446Z,96541.66
2022-10-08T06:37:36.943Z,96547.31
2022-10-08T06:40:06.247Z,96545.66
2022-10-08T06:42:33.769Z,96539.84
2022-10-08T06:45:02.350Z,96540.72
2022-10-08T06:47:30.284Z,96546.72
2022-10-08T06:49:57.805Z,96550.97
2022-10-08T06:52:25.350Z,96543.31
2022-10-08T06:54:52.849Z,96548.78
2022-10-08T06:57:21.710Z,96543.81
2022-10-08T06:59:49.383Z,96549.41
2022-10-08T07:02:16.895Z,96543.97
2022-10-08T07:04:44.512Z,96551.00
2022-10-08T07:07:12.009Z,96540.16
2022-10-08T07:09:39.540Z,96539.38
2022-10-08T07:12:07.053Z,96546.84
2022-10-08T07:14:35.916Z,96541.09
2022-10-08T07:17:03.415Z,96539.72
2022-10-08T07:19:30.928Z,96549.56
2022-10-08T07:22:01.342Z,96554.38
2022-10-08T07:24:29.201Z,96558.22
2022-10-08T07:26:56.865Z,96561.03
2022-10-08T07:29:26.190Z,96560.66
2022-10-08T07:31:55.139Z,96562.78
2022-10-08T07:34:22.785Z,96555.00
2022-10-08T07:36:50.280Z,96558.09
2022-10-08T07:39:19.787Z,96567.25
2022-10-08T07:41:48.311Z,96562.59
2022-10-08T07:44:16.676Z,96568.16
2022-10-08T07:46:46.115Z,96567.91
2022-10-08T07:49:16.096Z,96567.41
2022-10-08T07:51:44.260Z,96564.22
2022-10-08T07:54:15.557Z,96572.75
2022-10-08T07:56:43.229Z,96575.75
2022-10-08T07:59:14.833Z,96574.53
2022-10-08T08:01:43.434Z,96579.06
2022-10-08T08:04:12.223Z,96585.34
2022-10-08T08:06:43.276Z,96584.53
2022-10-08T08:09:11.976Z,96590.06
2022-10-08T08:11:40.226Z,96591.91
2022-10-08T08:14:08.108Z,96595.59
2022-10-08T08:16:35.982Z,96591.97
2022-10-08T08:19:04.217Z,96596.84
2022-10-08T08:21:33.308Z,96590.19
2022-10-08T08:24:05.890Z,96601.91
2022-10-08T08:26:36.780Z,96601.59
2022-10-08T08:29:06.973Z,96605.91
2022-10-08T08:31:36.084Z,96603.16
2022-10-08T08:34:05.563Z,96604.66
2022-10-08T08:36:35.794Z,96601.78
2022-10-08T08:39:05.848Z,96607.56
2022-10-08T08:41:52.957Z,96614.09
2022-10-08T08:44:23.264Z,96614.44
2022-10-08T08:46:57.418Z,96622.94
2022-10-08T08:49:29.344Z,96618.16
2022-10-08T08:51:59.233Z,96623.13
2022-10-08T08:54:28.382Z,96615.94
2022-10-08T08:56:56.320Z,96617.97
2022-10-08T08:59:32.499Z,96613.69
2022-10-08T09:02:04.661Z,96614.09
2022-10-08T09:04:45.053Z,96609.28
2022-10-08T09:07:18.019Z,96613.13
2022-10-08T09:09:50.230Z,96609.88
2022-10-08T09:12:21.221Z,96611.31
2022-10-08T09:14:52.977Z,96617.69
2022-10-08T09:17:23.361Z,96610.13
2022-10-08T09:19:51.398Z,96605.00
2022-10-08T09:22:22.933Z,96609.56
2022-10-08T09:24:55.709Z,96612.38
2022-10-08T09:27:23.310Z,96617.00
2022-10-08T09:29:50.843Z,96602.72
2022-10-08T09:32:21.120Z,96610.22
2022-10-08T09:34:49.213Z,96609.50
2022-10-08T09:37:22.153Z,96620.75
2022-10-08T09:40:21.214Z,96610.31
2022-10-08T09:43:11.859Z,96609.97
2022-10-08T09:45:43.799Z,96613.00
2022-10-08T09:48:22.811Z,96612.00
2022-10-08T09:50:54.978Z,96610.81
2022-10-08T09:53:25.690Z,96611.66
2022-10-08T09:55:58.232Z,96620.41
2022-10-08T09:58:25.960Z,96613.66
2022-10-08T10:01:03.741Z,96615.63
2022-10-08T10:03:32.623Z,96608.63
2022-10-08T10:06:01.491Z,96602.06
2022-10-08T10:08:45.849Z,96609.63
2022-10-08T10:11:21.387Z,96604.13
2022-10-08T10:13:50.907Z,96605.00
2022-10-08T10:16:23.572Z,96601.88
2022-10-08T10:18:58.088Z,96600.91
2022-10-08T10:21:35.440Z,96606.84
2022-10-08T10:24:23.749Z,96600.31
2022-10-08T10:26:56.834Z,96592.59
2022-10-08T10:29:30.183Z,96599.13
2022-10-08T10:32:03.623Z,96596.88
2022-10-08T10:34:37.043Z,96598.72
2022-10-08T10:37:11.439Z,96591.75
2022-10-08T10:39:44.434Z,96598.72
2022-10-08T10:42:18.467Z,96599.94
2022-10-08T10:44:53.291Z,96596.94
2022-10-08T10:47:27.113Z,96607.03
2022-10-08T10:49:57.917Z,96599.13
2022-10-08T10:52:37.334Z,96595.00
2022-10-08T10:55:32.571Z,96592.94
2022-10-08T10:58:18.608Z,96597.97
2022-10-08T11:00:56.227Z,96585.56
2022-10-08T11:03:31.944Z,96582.56
2022-10-08T11:06:27.925Z,96591.75
2022-10-08T11:09:00.542Z,96598.72
2022-10-08T11:11:37.270Z,96595.00
2022-10-08T11:14:23.271Z,96602.09
2022-10-08T11:17:03.759Z,96593.06
2022-10-08T11:19:40.099Z,96589.41
2022-10-08T11:22:18.211Z,96598.47
2022-10-08T11:25:01.944Z,96585.75
2022-10-08T11:27:40.092Z,96584.19
2022-10-08T11:30:14.150Z,96587.97
2022-10-08T11:32:43.752Z,96586.81
2022-10-08T11:35:24.644Z,96593.88
2022-10-08T11:38:02.691Z,96585.09
2022-10-08T11:40:35.921Z,96580.53
2022-10-08T11:43:08.327Z,96585.34
2022-10-08T11:45:39.879Z,96583.78
2022-10-08T11:48:32.757Z,96583.13
2022-10-08T11:51:31.172Z,96587.34
2022-10-08T11:54:05.808Z,96592.69
2022-10-08T11:56:35.841Z,96586.13
2022-10-08T11:59:11.057Z,96579.75
2022-10-08T12:01:53.267Z,96570.81
2022-10-08T12:04:23.785Z,96571.28
2022-10-08T12:07:03.844Z,96573.50
2022-10-08T12:10:22.581Z,96569.25
2022-10-08T12:13:28.683Z,96569.88
2022-10-08T12:16:06.686Z,96567.28
2022-10-08T12:18:54.103Z,96567.53
2022-10-08T12:21:55.160Z,96565.50
2022-10-08T12:24:58.249Z,96566.09
2022-10-08T12:27:39.871Z,96564.00
2022-10-08T12:30:10.542Z,96565.50
2022-10-08T12:32:57.892Z,96565.00
2022-10-08T12:35:32.790Z,96571.41
2022-10-08T12:38:22.746Z,96574.16
2022-10-08T12:41:00.196Z,96576.44
2022-10-08T12:43:37.856Z,96574.88
2022-10-08T12:46:18.482Z,96579.53
2022-10-08T12:48:52.088Z,96574.66
2022-10-08T12:51:27.352Z,96577.38
2022-10-08T12:53:55.056Z,96565.94
2022-10-08T12:56:26.195Z,96572.66
2022-10-08T12:58:56.807Z,96570.56
2022-10-08T13:01:26.071Z,96574.78
2022-10-08T13:04:10.693Z,96573.72
2022-10-08T13:06:39.610Z,96569.97
2022-10-08T13:09:26.619Z,96576.94
2022-10-08T13:11:58.297Z,96569.34
2022-10-08T13:14:30.753Z,96573.81
2022-10-08T13:16:58.795Z,96574.81
2022-10-08T13:19:31.892Z,96582.59
2022-10-08T13:22:02.933Z,96587.22
2022-10-08T13:24:33.995Z,96581.69
2022-10-08T13:27:01.632Z,96581.31
2022-10-08T13:29:32.473Z,96574.69
2022-10-08T13:32:02.126Z,96577.91
2022-10-08T13:34:32.059Z,96578.53
2022-10-08T13:37:03.588Z,96565.44
2022-10-08T13:39:34.590Z,96577.13
2022-10-08T13:42:04.867Z,96577.09
2022-10-08T13:44:34.488Z,96573.03
2022-10-08T13:47:03.858Z,96572.97
2022-10-08T13:49:33.764Z,96570.25
2022-10-08T13:52:02.953Z,96571.81
2022-10-08T13:54:33.265Z,96573.38
2022-10-08T13:57:01.215Z,96574.69
2022-10-08T13:59:30.900Z,96575.13
2022-10-08T14:01:58.716Z,96577.78
2022-10-08T14:04:26.924Z,96583.66
2022-10-08T14:06:57.264Z,96587.84
2022-10-08T14:09:28.927Z,96582.22
2022-10-08T14:11:59.265Z,96582.06
2022-10-08T14:14:28.435Z,96578.63
2022-10-08T14:16:55.963Z,96583.53
2022-10-08T14:19:23.500Z,96580.47
2022-10-08T14:21:55.069Z,96590.09
2022-10-08T14:24:22.580Z,96589.22
2022-10-08T14:26:51.427Z,96588.50
2022-10-08T14:29:19.061Z,96585.19
2022-10-08T14:31:46.641Z,96594.78
2022-10-08T14:34:14.238Z,96585.91
2022-10-08T14:36:42.790Z,96602.00
2022-10-08T14:39:11.011Z,96602.53
2022-10-08T14:41:40.683Z,96607.59
2022-10-08T14:44:09.589Z,96597.75
2022-10-08T14:46:37.103Z,96603.91
2022-10-08T14:49:05.284Z,96593.13
2022-10-08T14:51:38.402Z,96603.34
2022-10-08T14:54:06.980Z,96608.22
2022-10-08T14:56:34.662Z,96607.16
2022-10-08T14:59:02.204Z,96612.63
2022-10-08T15:01:31.410Z,96603.84
2022-10-08T15:03:59.038Z,96619.91
2022-10-08T15:06:26.583Z,96621.44
2022-10-08T15:08:54.183Z,96616.03
2022-10-08T15:11:21.717Z,96624.41
2022-10-08T15:13:49.248Z,96627.72
2022-10-08T15:16:16.854Z,96622.09
2022-10-08T15:18:45.779Z,96626.88
2022-10-08T15:21:13.277Z,96633.16
2022-10-08T15:23:40.763Z,96634.09
2022-10-08T15:26:14.614Z,96631.97
2022-10-08T15:28:43.130Z,96628.16
2022-10-08T15:31:13.752Z,96629.41
2022-10-08T15:33:42.611Z,96633.53
2022-10-08T15:36:20.173Z,96640.00
2022-10-08T15:38:49.102Z,96640.00
2022-10-08T15:41:17.423Z,96640.66
2022-10-08T15:43:45.503Z,96644.94
2022-10-08T15:46:15.743Z,96643.41
2022-10-08T15:48:43.455Z,96660.09
2022-10-08T15:51:11.035Z,96652.66
2022-10-08T15:53:40.141Z,96659.34
2022-10-08T15:56:07.684Z,96662.75
2022-10-08T15:58:49.944Z,96661.09
2022-10-08T16:01:19.903Z,96666.63
2022-10-08T16:03:49.129Z,96675.63
2022-10-08T16:06:18.613Z,96673.19
2022-10-08T16:08:47.780Z,96678.53
2022-10-08T16:11:18.393Z,96679.25
2022-10-08T16:13:50.177Z,96677.94
2022-10-08T16:16:17.896Z,96678.31
2022-10-08T16:18:46.919Z,96678.84
2022-10-08T16:21:14.957Z,96674.03
2022-10-08T16:23:42.504Z,96673.91
2022-10-08T16:26:13.757Z,96679.13
2022-10-08T16:28:42.056Z,96681.34
2022-10-08T16:31:11.321Z,96687.06
2022-10-08T16:33:39.259Z,96684.09
2022-10-08T16:36:08.894Z,96693.22
2022-10-08T16:38:37.871Z,96701.91
2022-10-08T16:41:15.136Z,96696.06
2022-10-08T16:43:46.041Z,96698.66
2022-10-08T16:46:15.413Z,96701.31
2022-10-08T16:48:43.608Z,96709.81
2022-10-08T16:51:12.043Z,96716.34
2022-10-08T16:53:40.303Z,96716.97
2022-10-08T16:56:07.857Z,96717.88
2022-10-08T16:58:36.708Z,96723.03
2022-10-08T17:01:08.715Z,96730.16
2022-10-08T17:03:36.664Z,96726.53
2022-10-08T17:06:04.903Z,96733.69
2022-10-08T17:08:32.425Z,96735.28
2022-10-08T17:11:04.676Z,96738.59
2022-10-08T17:13:32.394Z,96746.97
2022-10-08T17:16:02.831Z,96744.66
2022-10-08T17:18:32.225Z,96747.84
2022-10-08T17:21:03.105Z,96750.38
2022-10-08T17:23:35.975Z,96753.06
2022-10-08T17:26:06.336Z,96756.59
2022-10-08T17:28:36.327Z,96763.28
2022-10-08T17:31:07.229Z,96775.78
2022-10-08T17:33:36.297Z,96778.09
2022-10-08T17:36:06.736Z,96784.16
2022-10-08T17:38:35.054Z,96783.00
2022-10-08T17:41:09.634Z,96789.53
2022-10-08T17:43:37.133Z,96792.69
2022-10-08T17:46:10.403Z,96789.22
2022-10-08T17:48:38.259Z,96793.31
2022-10-08T17:51:06.995Z,96802.63
2022-10-08T17:53:34.956Z,96801.75
2022-10-08T17:56:04.801Z,96803.47
2022-10-08T17:58:32.403Z,96808.78
2022-10-08T18:01:08.807Z,96810.13
2022-10-08T18:03:38.829Z,96812.94
2022-10-08T18:06:07.341Z,96826.13
2022-10-08T18:08:35.044Z,96829.25
2022-10-08T18:11:03.503Z,96834.78
2022-10-08T18:13:31.377Z,96833.84
2022-10-08T18:16:03.456Z,96836.13
2022-10-08T18:18:31.107Z,96844.19
2022-10-08T18:21:01.608Z,96850.47
2022-10-08T18:23:30.172Z,96845.94
2022-10-08T18:26:07.930Z,96846.41
2022-10-08T18:28:36.073Z,96847.88
2022-10-08T18:31:05.091Z,96854.09
2022-10-08T18:33:32.984Z,96850.72
2022-10-08T18:36:09.880Z,96856.59
2022-10-08T18:38:37.428Z,96866.88
2022-10-08T18:41:15.321Z,96868.75
2022-10-08T18:43:43.208Z,96878.53
2022-10-08T18:46:11.167Z,96880.38
2022-10-08T18:48:39.100Z,96875.25
2022-10-08T18:51:10.064Z,96881.06
2022-10-08T18:53:39.379Z,96880.22
2022-10-08T18:56:10.283Z,96880.34
2022-10-08T18:58:38.066Z,96885.09
2022-10-08T19:01:07.005Z,96884.81
2022-10-08T19:03:34.591Z,96888.34
2022-10-08T19:06:02.108Z,96892.09
2022-10-08T19:08:31.168Z,96884.25
2022-10-08T19:10:58.682Z,96891.84
2022-10-08T19:13:26.184Z,96893.53
2022-10-08T19:15:53.748Z,96898.06
2022-10-08T19:18:21.281Z,96897.69
2022-10-08T19:20:48.787Z,96913.00
2022-10-08T19:23:16.304Z,96909.25
2022-10-08T19:25:45.166Z,96907.47
2022-10-08T19:28:12.690Z,96928.13
2022-10-08T19:30:40.201Z,96919.69
2022-10-08T19:33:07.699Z,96922.59
2022-10-08T19:35:35.245Z,96928.06
2022-10-08T19:38:02.788Z,96937.00
2022-10-08T19:40:30.309Z,96933.19
2022-10-08T19:42:59.158Z,96935.31
2022-10-08T19:45:26.686Z,96943.88
2022-10-08T19:47:54.176Z,96958.50
2022-10-08T19:50:21.718Z,96960.16
2022-10-08T19:52:51.867Z,96969.09
2022-10-08T19:55:19.639Z,96973.91
2022-10-08T19:57:47.149Z,96988.72
2022-10-08T20:00:16.780Z,96990.53
2022-10-08T20:02:44.311Z,96992.47
2022-10-08T20:05:11.825Z,96996.81
2022-10-08T20:07:39.836Z,96991.38
2022-10-08T20:10:08.265Z,97000.56
2022-10-08T20:12:35.768Z,97006.72
2022-10-08T20:15:03.307Z,97008.34
2022-10-08T20:17:32.183Z,97012.94
2022-10-08T20:20:20.571Z,97021.44
2022-10-08T20:22:47.538Z,97015.06
2022-10-08T20:25:18.997Z,97019.25
2022-10-08T20:27:46.506Z,97019.03
2022-10-08T20:30:14.972Z,97011.69
2022-10-08T20:32:43.827Z,97013.78
2022-10-08T20:35:11.319Z,97013.69
2022-10-08T20:37:38.852Z,97013.00
2022-10-08T20:40:07.299Z,97013.25
2022-10-08T20:42:34.816Z,97024.66
2022-10-08T20:45:02.444Z,97024.41
2022-10-08T20:47:29.953Z,97030.31
2022-10-08T20:49:58.806Z,97032.44
2022-10-08T20:52:26.329Z,97031.25
2022-10-08T20:54:53.841Z,97027.78
2022-10-08T20:57:21.346Z,97029.38
2022-10-08T20:59:48.880Z,97031.81
2022-10-08T21:02:19.604Z,97036.16
2022-10-08T21:04:47.551Z,97032.88
2022-10-08T21:07:16.388Z,97035.38
2022-10-08T21:09:43.944Z,97044.53
2022-10-08T21:12:11.453Z,97050.28
2022-10-08T21:14:38.989Z,97048.00
2022-10-08T21:17:06.499Z,97048.38
2022-10-08T21:19:34.002Z,97042.66
2022-10-08T21:22:01.532Z,97043.75
2022-10-08T21:24:30.441Z,97049.91
2022-10-08T21:26:58.053Z,97055.66
2022-10-08T21:29:25.543Z,97048.81
2022-10-08T21:31:53.121Z,97050.91
2022-10-08T21:34:20.933Z,97056.66
2022-10-08T21:36:49.972Z,97052.72
2022-10-08T21:39:18.253Z,97058.59
2022-10-08T21:41:47.389Z,97055.25
2022-10-08T21:44:15.754Z,97060.72
2022-10-08T21:46:43.327Z,97058.91
2022-10-08T21:49:13.912Z,97058.91
2022-10-08T21:51:41.628Z,97058.22
2022-10-08T21:54:11.102Z,97060.72
2022-10-08T21:56:41.193Z,97061.56
2022-10-08T21:59:13.367Z,97071.19
2022-10-08T22:01:42.687Z,97073.44
2022-10-08T22:04:12.174Z,97069.53
2022-10-08T22:06:41.760Z,97079.84
2022-10-08T22:09:11.597Z,97065.03
2022-10-08T22:11:39.469Z,97070.09
2022-10-08T22:14:07.261Z,97066.13
2022-10-08T22:16:36.306Z,97077.28
2022-10-08T22:19:04.406Z,97071.97
2022-10-08T22:21:32.355Z,97073.63
2022-10-08T22:23:59.984Z,97072.50
2022-10-08T22:26:30.118Z,97072.44
2022-10-08T22:28:58.564Z,97072.44
2022-10-08T22:31:27.021Z,97067.94
2022-10-08T22:33:56.458Z,97080.25
2022-10-08T22:36:26.266Z,97074.41
2022-10-08T22:38:54.441Z,97069.38
2022-10-08T22:41:23.571Z,97072.44
2022-10-08T22:43:51.617Z,97062.00
2022-10-08T22:46:21.905Z,97067.94
2022-10-08T22:48:49.783Z,97071.81
2022-10-08T22:51:20.148Z,97072.91
2022-10-08T22:53:47.968Z,97069.81
2022-10-08T22:56:18.601Z,97073.97
2022-10-08T22:58:46.660Z,97076.72
2022-10-08T23:01:15.672Z,97084.81
2022-10-08T23:03:43.494Z,97080.94
2022-10-08T23:06:15.474Z,97081.22
2022-10-08T23:08:45.964Z,97080.28
2022-10-08T23:11:14.112Z,97078.88
2022-10-08T23:13:45.386Z,97081.53
2022-10-08T23:16:14.970Z,97079.88
2022-10-08T23:18:45.744Z,97074.81
2022-10-08T23:21:15.793Z,97078.53
2022-10-08T23:23:45.883Z,97081.31
2022-10-08T23:26:14.434Z,97079.75
2022-10-08T23:28:42.789Z,97076.59
2022-10-08T23:31:12.613Z,97082.19
2022-10-08T23:33:42.085Z,97083.56
2022-10-08T23:36:10.656Z,97081.63
2022-10-08T23:38:38.474Z,97088.25
2022-10-08T23:41:09.241Z,97088.84
2022-10-08T23:43:38.267Z,97085.50
2022-10-08T23:46:07.628Z,97088.16
2022-10-08T23:48:35.619Z,97096.56
2022-10-08T23:51:04.292Z,97095.44
2022-10-08T23:53:32.451Z,97094.97
2022-10-08T23:56:00.545Z,97091.47
2022-10-08T23:58:29.438Z,97094.97
